Time;durP1;ratioP1;P1;durP2;ratioP2;P2;SDS_P1;SDS_P2;PMS_P1;PMS_P2;Temp;Humidity;BMP_temperature;BMP_pressure;BME280_temperature;BME280_humidity;BME280_pressure;Samples;Min_cycle;Max_cycle;Signal;HPM_P1;HPM_P2
2021/06/29 00:00:13;;;;;;;8.50;4.75;;;;;;;;;;5094028;28;20425;-74
2021/06/29 00:02:39;;;;;;;6.25;4.47;;;;;;;;;;5092485;28;20149;-74
2021/06/29 00:05:06;;;;;;;7.32;4.97;;;;;;;;;;5081471;28;20021;-74
2021/06/29 00:07:43;;;;;;;6.97;4.88;;;;;;;;;;5093844;28;20031;-74
2021/06/29 00:10:09;;;;;;;6.32;4.43;;;;;;;;;;5093538;28;20054;-74
2021/06/29 00:12:35;;;;;;;5.82;4.20;;;;;;;;;;5093255;28;20051;-74
2021/06/29 00:15:00;;;;;;;6.82;4.10;;;;;;;;;;5093337;28;20539;-74
2021/06/29 00:17:25;;;;;;;5.03;3.97;;;;;;;;;;5093357;28;20470;-74
2021/06/29 00:19:51;;;;;;;5.47;4.13;;;;;;;;;;5093412;28;20019;-74
2021/06/29 00:22:16;;;;;;;7.40;4.30;;;;;;;;;;5093559;28;20058;-74
2021/06/29 00:24:43;;;;;;;5.50;4.28;;;;;;;;;;5092894;28;20085;-73
2021/06/29 00:27:08;;;;;;;5.75;4.60;;;;;;;;;;5093590;28;20468;-74
2021/06/29 00:29:34;;;;;;;8.32;4.35;;;;;;;;;;5092648;28;20031;-74
2021/06/29 00:31:59;;;;;;;7.53;4.25;;;;;;;;;;5092868;28;20019;-74
2021/06/29 00:34:25;;;;;;;5.45;4.22;;;;;;;;;;5083566;28;20031;-74
2021/06/29 00:36:50;;;;;;;7.78;4.70;;;;;;;;;;5093116;28;20024;-74
2021/06/29 00:39:16;;;;;;;5.57;4.60;;;;;;;;;;5092779;28;20088;-73
2021/06/29 00:41:41;;;;;;;6.63;4.32;;;;;;;;;;5092466;28;20032;-74
2021/06/29 00:44:20;;;;;;;6.88;4.50;;;;;;;;;;5092329;28;20464;-74
2021/06/29 00:46:47;;;;;;;8.93;4.70;;;;;;;;;;5091106;28;20059;-74
2021/06/29 00:49:12;;;;;;;6.47;4.30;;;;;;;;;;5092854;28;20111;-74
2021/06/29 00:51:38;;;;;;;5.68;4.53;;;;;;;;;;5086519;28;20491;-74
2021/06/29 00:54:04;;;;;;;6.72;4.72;;;;;;;;;;5092630;28;20062;-74
2021/06/29 00:56:29;;;;;;;6.13;4.97;;;;;;;;;;5092436;28;20070;-73
2021/06/29 00:58:55;;;;;;;5.90;4.80;;;;;;;;;;5092215;28;20032;-73
2021/06/29 01:01:20;;;;;;;7.47;5.18;;;;;;;;;;5092374;28;20036;-74
2021/06/29 01:03:46;;;;;;;7.57;4.55;;;;;;;;;;5090898;28;20432;-74
2021/06/29 01:06:13;;;;;;;7.45;4.35;;;;;;;;;;5074713;28;20024;-74
2021/06/29 01:08:41;;;;;;;8.52;4.25;;;;;;;;;;5076955;28;20348;-74
2021/06/29 01:11:07;;;;;;;5.75;4.13;;;;;;;;;;5067251;28;20036;-74
2021/06/29 01:13:42;;;;;;;9.52;4.25;;;;;;;;;;5092426;28;20040;-74
2021/06/29 01:16:09;;;;;;;8.13;4.22;;;;;;;;;;5092545;28;20020;-74
2021/06/29 01:18:36;;;;;;;6.60;4.20;;;;;;;;;;5092182;28;20050;-74
2021/06/29 01:21:04;;;;;;;5.38;4.38;;;;;;;;;;5092400;28;20035;-74
2021/06/29 01:23:29;;;;;;;6.75;4.82;;;;;;;;;;5091552;28;20077;-74
2021/06/29 01:26:16;;;;;;;7.63;4.70;;;;;;;;;;5091940;28;20048;-74
2021/06/29 01:29:03;;;;;;;8.38;5.60;;;;;;;;;;5091455;28;20553;-73
2021/06/29 01:31:29;;;;;;;6.63;4.32;;;;;;;;;;5090572;28;20023;-74
2021/06/29 01:33:56;;;;;;;5.65;4.43;;;;;;;;;;5083563;28;20082;-74
2021/06/29 01:36:23;;;;;;;5.57;4.85;;;;;;;;;;5091812;28;20020;-74
2021/06/29 01:38:49;;;;;;;6.68;4.53;;;;;;;;;;5075380;28;20031;-74
2021/06/29 01:41:18;;;;;;;6.93;4.45;;;;;;;;;;5075462;28;20380;-74
2021/06/29 01:44:00;;;;;;;6.95;4.68;;;;;;;;;;5075432;28;20025;-73
2021/06/29 01:46:29;;;;;;;9.82;4.95;;;;;;;;;;5075138;28;20028;-74
2021/06/29 01:48:57;;;;;;;7.88;5.15;;;;;;;;;;5075376;28;20028;-73
2021/06/29 01:51:23;;;;;;;16.70;4.88;;;;;;;;;;5075332;28;20055;-73
2021/06/29 01:53:50;;;;;;;11.32;4.57;;;;;;;;;;5080089;28;20020;-73
2021/06/29 01:56:16;;;;;;;11.80;4.40;;;;;;;;;;5095915;28;20106;-73
2021/06/29 01:58:51;;;;;;;8.40;4.93;;;;;;;;;;5078075;28;20119;-73
2021/06/29 02:01:17;;;;;;;9.25;4.95;;;;;;;;;;5095740;28;20031;-73
2021/06/29 02:03:43;;;;;;;6.88;4.40;;;;;;;;;;5092903;28;20032;-73
2021/06/29 02:06:09;;;;;;;8.63;4.63;;;;;;;;;;5095889;28;20028;-73
2021/06/29 02:08:34;;;;;;;7.00;4.97;;;;;;;;;;5092083;28;20031;-73
2021/06/29 02:11:03;;;;;;;6.70;5.00;;;;;;;;;;5096011;28;20034;-74
2021/06/29 02:13:29;;;;;;;6.18;4.50;;;;;;;;;;5095818;28;20035;-73
2021/06/29 02:15:55;;;;;;;10.10;4.68;;;;;;;;;;5095563;28;20024;-73
2021/06/29 02:18:22;;;;;;;9.93;4.50;;;;;;;;;;5095522;28;20026;-73
2021/06/29 02:20:49;;;;;;;8.60;4.70;;;;;;;;;;5095097;28;20028;-73
2021/06/29 02:23:14;;;;;;;8.48;5.10;;;;;;;;;;5095654;28;20024;-73
2021/06/29 02:25:40;;;;;;;7.47;5.30;;;;;;;;;;5094850;28;20431;-73
2021/06/29 02:28:05;;;;;;;7.20;4.90;;;;;;;;;;5079707;28;20413;-73
2021/06/29 02:30:31;;;;;;;7.45;3.97;;;;;;;;;;5082862;28;20052;-72
2021/06/29 02:32:56;;;;;;;10.50;5.05;;;;;;;;;;5094758;28;20498;-73
2021/06/29 02:35:22;;;;;;;11.13;4.93;;;;;;;;;;5094373;28;20028;-73
2021/06/29 02:37:47;;;;;;;8.07;5.55;;;;;;;;;;5094174;28;20107;-73
2021/06/29 02:40:14;;;;;;;10.85;5.90;;;;;;;;;;5094734;28;20047;-74
2021/06/29 02:42:40;;;;;;;10.32;5.45;;;;;;;;;;5095047;28;20024;-73
2021/06/29 02:45:08;;;;;;;9.27;4.95;;;;;;;;;;5094448;28;20031;-73
2021/06/29 02:47:34;;;;;;;9.63;5.93;;;;;;;;;;5094425;28;20020;-73
2021/06/29 02:50:00;;;;;;;7.20;5.30;;;;;;;;;;5094636;28;20027;-73
2021/06/29 02:52:26;;;;;;;7.82;5.07;;;;;;;;;;5094987;28;20378;-73
2021/06/29 02:54:51;;;;;;;10.40;5.97;;;;;;;;;;5076447;28;20031;-73
2021/06/29 02:57:17;;;;;;;9.50;6.22;;;;;;;;;;5086988;28;20533;-73
2021/06/29 02:59:42;;;;;;;9.35;6.18;;;;;;;;;;5075984;28;20028;-73
2021/06/29 03:02:08;;;;;;;8.23;4.95;;;;;;;;;;5094627;28;20023;-73
2021/06/29 03:04:33;;;;;;;17.85;5.18;;;;;;;;;;5094928;28;20420;-73
2021/06/29 03:06:59;;;;;;;14.10;5.38;;;;;;;;;;5094168;28;20032;-73
2021/06/29 03:09:24;;;;;;;12.10;7.03;;;;;;;;;;5093528;28;20177;-73
2021/06/29 03:11:50;;;;;;;11.55;7.53;;;;;;;;;;5094379;28;20024;-73
2021/06/29 03:14:15;;;;;;;9.65;6.80;;;;;;;;;;5093973;28;20438;-73
2021/06/29 03:16:41;;;;;;;10.82;7.28;;;;;;;;;;5094558;28;20032;-73
2021/06/29 03:19:07;;;;;;;12.93;5.13;;;;;;;;;;5094252;28;20024;-74
2021/06/29 03:21:33;;;;;;;11.43;6.28;;;;;;;;;;5094961;28;20027;-73
2021/06/29 03:23:58;;;;;;;10.48;5.60;;;;;;;;;;5094755;28;20569;-73
2021/06/29 03:26:24;;;;;;;14.57;6.50;;;;;;;;;;5093513;28;20044;-73
2021/06/29 03:28:49;;;;;;;9.57;6.32;;;;;;;;;;5089276;28;20395;-73
2021/06/29 03:31:15;;;;;;;12.23;7.03;;;;;;;;;;5094504;28;20035;-73
2021/06/29 03:33:40;;;;;;;17.60;8.27;;;;;;;;;;5094019;28;20024;-73
2021/06/29 03:36:06;;;;;;;16.25;8.32;;;;;;;;;;5079543;28;20096;-73
2021/06/29 03:38:32;;;;;;;19.77;9.13;;;;;;;;;;5084723;28;20020;-74
2021/06/29 03:40:58;;;;;;;14.00;7.95;;;;;;;;;;5092781;28;20505;-73
2021/06/29 03:43:23;;;;;;;10.82;7.40;;;;;;;;;;5091879;28;20095;-73
2021/06/29 03:45:48;;;;;;;14.80;7.85;;;;;;;;;;5093157;28;20111;-73
2021/06/29 03:48:14;;;;;;;14.75;8.65;;;;;;;;;;5094008;28;20111;-73
2021/06/29 03:50:40;;;;;;;16.40;8.63;;;;;;;;;;5093841;28;20042;-73
2021/06/29 03:53:05;;;;;;;13.50;8.80;;;;;;;;;;5092687;28;20028;-73
2021/06/29 03:55:31;;;;;;;13.73;9.60;;;;;;;;;;5093094;28;20027;-73
2021/06/29 03:57:58;;;;;;;19.95;9.45;;;;;;;;;;5085338;28;20070;-73
2021/06/29 04:00:23;;;;;;;14.20;9.20;;;;;;;;;;5092315;28;20383;-73
2021/06/29 04:02:49;;;;;;;13.45;9.18;;;;;;;;;;5074616;28;20031;-73
2021/06/29 04:05:17;;;;;;;15.13;9.25;;;;;;;;;;5093816;28;20032;-73
2021/06/29 04:07:43;;;;;;;16.05;8.98;;;;;;;;;;5093291;28;20050;-74
2021/06/29 04:10:09;;;;;;;15.13;9.25;;;;;;;;;;5093534;28;20035;-73
2021/06/29 04:12:35;;;;;;;15.00;10.23;;;;;;;;;;5093148;28;20024;-74
2021/06/29 04:15:00;;;;;;;17.00;9.98;;;;;;;;;;5093385;28;20030;-73
2021/06/29 04:17:26;;;;;;;14.13;9.38;;;;;;;;;;5093272;28;20106;-73
2021/06/29 04:19:51;;;;;;;15.02;9.10;;;;;;;;;;5075115;28;20046;-73
2021/06/29 04:22:17;;;;;;;13.88;9.80;;;;;;;;;;5092933;28;20028;-73
2021/06/29 04:24:43;;;;;;;13.23;8.38;;;;;;;;;;5093024;28;20024;-73
2021/06/29 04:27:09;;;;;;;16.23;10.25;;;;;;;;;;5092416;28;20032;-73
2021/06/29 04:29:45;;;;;;;14.98;10.05;;;;;;;;;;5093409;28;20035;-73
2021/06/29 04:32:10;;;;;;;16.27;9.48;;;;;;;;;;5075799;28;20082;-73
2021/06/29 04:34:36;;;;;;;12.13;9.15;;;;;;;;;;5089026;28;20044;-73
2021/06/29 04:37:03;;;;;;;11.38;9.15;;;;;;;;;;5093028;28;20110;-73
2021/06/29 04:39:28;;;;;;;13.20;8.35;;;;;;;;;;5092789;28;20111;-73
2021/06/29 04:41:53;;;;;;;13.25;9.07;;;;;;;;;;5077655;28;20099;-73
2021/06/29 04:44:19;;;;;;;13.48;8.68;;;;;;;;;;5091793;28;20016;-73
2021/06/29 04:46:49;;;;;;;14.32;9.13;;;;;;;;;;5092622;28;20086;-73
2021/06/29 04:49:14;;;;;;;12.88;8.77;;;;;;;;;;5093238;28;20024;-73
2021/06/29 04:51:46;;;;;;;10.10;8.18;;;;;;;;;;5093157;28;20050;-73
2021/06/29 04:54:11;;;;;;;8.73;7.07;;;;;;;;;;5089972;28;20036;-73
2021/06/29 04:56:37;;;;;;;8.48;6.40;;;;;;;;;;5084582;28;20039;-73
2021/06/29 04:59:03;;;;;;;12.38;6.20;;;;;;;;;;5075724;28;20059;-73
2021/06/29 05:01:30;;;;;;;6.70;5.50;;;;;;;;;;5087610;28;20016;-73
2021/06/29 05:03:55;;;;;;;7.38;4.57;;;;;;;;;;5086342;28;20526;-73
2021/06/29 05:06:21;;;;;;;7.50;5.70;;;;;;;;;;5092340;28;20020;-73
2021/06/29 05:08:46;;;;;;;6.07;4.90;;;;;;;;;;5088717;28;20036;-73
2021/06/29 05:11:12;;;;;;;5.45;4.70;;;;;;;;;;5092895;28;20020;-73
2021/06/29 05:13:38;;;;;;;5.97;4.30;;;;;;;;;;5096956;28;20020;-73
2021/06/29 05:16:04;;;;;;;6.82;4.50;;;;;;;;;;5079191;28;20028;-73
2021/06/29 05:18:29;;;;;;;6.63;3.72;;;;;;;;;;5097195;28;20064;-73
2021/06/29 05:21:02;;;;;;;5.03;3.88;;;;;;;;;;5097009;28;20058;-73
2021/06/29 05:23:28;;;;;;;5.88;3.20;;;;;;;;;;5096892;28;20032;-72
2021/06/29 05:25:53;;;;;;;8.38;3.63;;;;;;;;;;5096743;28;20093;-73
2021/06/29 05:28:25;;;;;;;6.25;3.45;;;;;;;;;;5096018;28;20425;-72
2021/06/29 05:30:51;;;;;;;5.07;3.78;;;;;;;;;;5096650;28;20522;-71
2021/06/29 05:33:18;;;;;;;5.22;3.40;;;;;;;;;;5096279;28;20115;-70
2021/06/29 05:35:44;;;;;;;6.82;3.25;;;;;;;;;;5088464;28;20020;-70
2021/06/29 05:38:10;;;;;;;5.97;3.70;;;;;;;;;;5095753;28;20077;-70
2021/06/29 05:40:35;;;;;;;5.03;3.08;;;;;;;;;;5096094;28;20032;-70
2021/06/29 05:43:01;;;;;;;4.25;3.30;;;;;;;;;;5094408;28;20028;-70
2021/06/29 05:45:27;;;;;;;5.15;3.13;;;;;;;;;;5096501;28;20448;-70
2021/06/29 05:47:53;;;;;;;5.95;3.17;;;;;;;;;;5096263;28;20051;-70
2021/06/29 05:50:19;;;;;;;5.20;3.30;;;;;;;;;;5096071;28;20024;-70
2021/06/29 05:52:46;;;;;;;3.78;2.97;;;;;;;;;;5095925;28;20035;-70
2021/06/29 05:55:12;;;;;;;4.13;3.30;;;;;;;;;;5095496;28;20028;-71
2021/06/29 05:57:37;;;;;;;5.63;3.20;;;;;;;;;;5095752;28;20149;-70
2021/06/29 06:00:08;;;;;;;5.50;3.30;;;;;;;;;;5095563;28;20020;-70
2021/06/29 06:02:33;;;;;;;6.20;3.50;;;;;;;;;;5095390;28;20019;-70
2021/06/29 06:04:59;;;;;;;4.70;2.92;;;;;;;;;;5095651;28;20016;-70
2021/06/29 06:07:26;;;;;;;5.10;3.00;;;;;;;;;;5094900;28;20020;-71
2021/06/29 06:09:52;;;;;;;5.90;2.40;;;;;;;;;;5095300;28;20107;-71
2021/06/29 06:12:17;;;;;;;5.15;2.70;;;;;;;;;;5093798;28;20416;-69
2021/06/29 06:14:43;;;;;;;3.78;2.70;;;;;;;;;;5095230;28;20123;-71
2021/06/29 06:17:08;;;;;;;5.72;2.67;;;;;;;;;;5096435;28;20031;-70
2021/06/29 06:19:35;;;;;;;4.32;2.55;;;;;;;;;;5095763;28;20378;-70
2021/06/29 06:22:00;;;;;;;4.47;2.38;;;;;;;;;;5095207;28;20488;-72
2021/06/29 06:24:26;;;;;;;3.60;2.30;;;;;;;;;;5095848;28;20048;-73
2021/06/29 06:26:51;;;;;;;4.70;2.70;;;;;;;;;;5095965;28;20083;-73
2021/06/29 06:29:17;;;;;;;4.72;2.58;;;;;;;;;;5095607;28;20047;-73
2021/06/29 06:31:43;;;;;;;3.90;2.60;;;;;;;;;;5095612;28;20077;-72
2021/06/29 06:34:10;;;;;;;4.25;2.63;;;;;;;;;;5081125;28;20020;-72
2021/06/29 06:36:36;;;;;;;3.83;2.40;;;;;;;;;;5087147;28;20021;-73
2021/06/29 06:39:03;;;;;;;7.60;2.78;;;;;;;;;;5090926;28;20024;-73
2021/06/29 06:41:29;;;;;;;5.22;2.78;;;;;;;;;;5093013;28;20040;-74
2021/06/29 06:43:54;;;;;;;5.25;2.40;;;;;;;;;;5090934;28;20031;-72
2021/06/29 06:46:20;;;;;;;5.20;2.60;;;;;;;;;;5095055;28;20024;-71
2021/06/29 06:48:47;;;;;;;3.85;2.55;;;;;;;;;;5093664;28;20047;-72
2021/06/29 06:51:13;;;;;;;4.15;2.30;;;;;;;;;;5095595;28;20020;-72
2021/06/29 06:53:47;;;;;;;7.07;2.50;;;;;;;;;;5095085;28;20031;-72
2021/06/29 06:56:15;;;;;;;6.75;2.80;;;;;;;;;;5094936;28;20046;-75
2021/06/29 06:58:47;;;;;;;4.25;2.47;;;;;;;;;;5072375;28;20020;-73
2021/06/29 07:01:15;;;;;;;2.92;2.40;;;;;;;;;;5085776;28;20035;-75
2021/06/29 07:03:40;;;;;;;3.70;2.45;;;;;;;;;;5094479;28;20490;-76
2021/06/29 07:06:19;;;;;;;4.80;2.53;;;;;;;;;;5093678;28;20024;-75
2021/06/29 07:08:44;;;;;;;3.30;2.25;;;;;;;;;;5094106;28;20031;-75
2021/06/29 07:11:10;;;;;;;4.38;2.42;;;;;;;;;;5094474;28;20016;-75
2021/06/29 07:13:36;;;;;;;4.25;2.35;;;;;;;;;;5093279;28;20074;-75
2021/06/29 07:16:03;;;;;;;3.38;2.22;;;;;;;;;;5094337;28;20024;-75
2021/06/29 07:18:29;;;;;;;4.90;2.30;;;;;;;;;;5093571;28;20089;-75
2021/06/29 07:20:55;;;;;;;2.88;2.20;;;;;;;;;;5063417;28;20032;-74
2021/06/29 07:23:20;;;;;;;5.53;2.50;;;;;;;;;;5083213;28;20073;-74
2021/06/29 07:25:52;;;;;;;4.97;2.35;;;;;;;;;;5093917;28;20036;-74
2021/06/29 07:28:18;;;;;;;5.47;2.40;;;;;;;;;;5094621;28;20028;-75
2021/06/29 07:30:46;;;;;;;5.35;2.35;;;;;;;;;;5094422;28;20024;-75
2021/06/29 07:33:11;;;;;;;5.63;2.42;;;;;;;;;;5084180;28;20028;-74
2021/06/29 07:35:37;;;;;;;3.72;2.30;;;;;;;;;;5083777;28;20132;-74
2021/06/29 07:38:04;;;;;;;5.40;2.63;;;;;;;;;;5091881;28;20012;-75
2021/06/29 07:40:30;;;;;;;3.72;2.60;;;;;;;;;;5093946;28;20387;-75
2021/06/29 07:42:56;;;;;;;3.95;2.25;;;;;;;;;;5075581;28;20024;-74
2021/06/29 07:45:26;;;;;;;5.20;2.40;;;;;;;;;;5089410;28;20023;-75
2021/06/29 07:47:52;;;;;;;4.03;2.63;;;;;;;;;;5093968;28;20024;-75
2021/06/29 07:50:18;;;;;;;3.28;1.98;;;;;;;;;;5102586;28;20028;-77
2021/06/29 07:52:43;;;;;;;3.55;2.20;;;;;;;;;;5099074;28;20118;-77
2021/06/29 07:55:09;;;;;;;4.15;2.20;;;;;;;;;;5095509;28;20479;-77
2021/06/29 07:57:36;;;;;;;3.50;1.90;;;;;;;;;;5094421;28;20024;-75
2021/06/29 08:00:03;;;;;;;4.15;2.00;;;;;;;;;;5094432;28;20024;-75
2021/06/29 08:02:35;;;;;;;3.88;2.15;;;;;;;;;;5089701;28;20064;-76
2021/06/29 08:05:01;;;;;;;5.30;2.00;;;;;;;;;;5092981;28;20031;-76
2021/06/29 08:07:29;;;;;;;11.32;2.15;;;;;;;;;;5095029;28;20036;-79
2021/06/29 08:09:56;;;;;;;5.80;2.38;;;;;;;;;;5095284;28;20035;-80
2021/06/29 08:12:28;;;;;;;3.88;2.17;;;;;;;;;;5096885;28;20028;-78
2021/06/29 08:14:54;;;;;;;6.32;2.80;;;;;;;;;;5085252;28;20025;-80
2021/06/29 08:17:19;;;;;;;6.03;3.00;;;;;;;;;;5094299;28;20096;-77
2021/06/29 08:19:45;;;;;;;4.22;2.97;;;;;;;;;;5095244;28;20368;-77
2021/06/29 08:22:13;;;;;;;5.47;2.90;;;;;;;;;;5094262;28;20031;-72
2021/06/29 08:24:38;;;;;;;3.40;2.75;;;;;;;;;;5093206;28;20019;-72
2021/06/29 08:27:04;;;;;;;4.55;3.17;;;;;;;;;;5094095;28;20039;-72
2021/06/29 08:29:30;;;;;;;4.32;3.00;;;;;;;;;;5093628;28;20031;-74
2021/06/29 08:31:55;;;;;;;4.50;3.30;;;;;;;;;;5092675;28;20016;-73
2021/06/29 08:34:21;;;;;;;6.28;3.10;;;;;;;;;;5074285;28;20028;-70
2021/06/29 08:37:00;;;;;;;4.22;3.08;;;;;;;;;;5092217;28;20032;-70
2021/06/29 08:39:25;;;;;;;7.63;3.00;;;;;;;;;;5075144;28;20039;-72
2021/06/29 08:41:51;;;;;;;5.18;3.33;;;;;;;;;;5092528;28;20028;-78
2021/06/29 08:44:18;;;;;;;5.97;3.67;;;;;;;;;;5092942;28;20024;-75
2021/06/29 08:46:44;;;;;;;7.07;3.67;;;;;;;;;;5092941;28;20387;-72
2021/06/29 08:49:09;;;;;;;5.70;3.13;;;;;;;;;;5092436;28;20039;-73
2021/06/29 08:51:37;;;;;;;5.28;3.40;;;;;;;;;;5092175;28;20027;-72
2021/06/29 08:54:03;;;;;;;5.28;3.50;;;;;;;;;;5092245;28;20024;-74
2021/06/29 08:56:32;;;;;;;5.88;3.30;;;;;;;;;;5092334;28;20035;-72
2021/06/29 08:58:59;;;;;;;5.60;3.80;;;;;;;;;;5092870;28;20535;-70
2021/06/29 09:01:29;;;;;;;4.93;3.30;;;;;;;;;;5091937;28;20054;-71
2021/06/29 09:03:54;;;;;;;6.28;3.85;;;;;;;;;;5078516;28;20056;-73
2021/06/29 09:06:41;;;;;;;5.22;3.67;;;;;;;;;;5092587;28;20073;-72
2021/06/29 09:09:29;;;;;;;7.03;3.88;;;;;;;;;;5085879;28;20046;-71
2021/06/29 09:11:58;;;;;;;7.30;3.97;;;;;;;;;;5085751;28;20433;-72
2021/06/29 09:14:29;;;;;;;5.63;3.50;;;;;;;;;;5085452;28;20135;-70
2021/06/29 09:17:15;;;;;;;4.95;3.60;;;;;;;;;;5086244;28;20040;-71
2021/06/29 09:19:40;;;;;;;7.88;3.63;;;;;;;;;;5077633;28;20478;-71
2021/06/29 09:22:28;;;;;;;6.72;3.97;;;;;;;;;;5086574;28;20115;-73
2021/06/29 09:24:54;;;;;;;6.38;4.00;;;;;;;;;;5087211;28;20493;-73
2021/06/29 09:27:45;;;;;;;8.15;4.00;;;;;;;;;;5092267;28;20028;-74
2021/06/29 09:30:48;;;;;;;6.57;3.78;;;;;;;;;;5073642;28;20074;-75
2021/06/29 09:33:26;;;;;;;5.78;4.03;;;;;;;;;;5085009;28;20024;-72
2021/06/29 09:35:57;;;;;;;6.32;3.67;;;;;;;;;;5082558;28;20051;-73
2021/06/29 09:38:25;;;;;;;8.48;3.83;;;;;;;;;;5092857;28;20375;-75
2021/06/29 09:40:55;;;;;;;6.10;3.60;;;;;;;;;;5089155;28;20082;-73
2021/06/29 09:43:23;;;;;;;4.47;3.35;;;;;;;;;;5092597;28;20039;-74
2021/06/29 09:45:55;;;;;;;5.63;3.53;;;;;;;;;;5093066;28;20055;-74
2021/06/29 09:48:33;;;;;;;7.00;3.78;;;;;;;;;;5093174;28;20020;-77
2021/06/29 09:51:05;;;;;;;8.35;3.90;;;;;;;;;;5084152;28;20063;-77
2021/06/29 09:53:34;;;;;;;6.05;3.28;;;;;;;;;;5092611;28;20027;-76
2021/06/29 09:56:16;;;;;;;7.53;3.50;;;;;;;;;;5093305;28;20020;-74
2021/06/29 09:58:44;;;;;;;6.22;3.53;;;;;;;;;;5095696;28;20442;-77
2021/06/29 10:01:15;;;;;;;6.65;4.00;;;;;;;;;;5071534;28;20080;-76
2021/06/29 10:03:42;;;;;;;5.97;3.70;;;;;;;;;;5079631;28;20467;-75
2021/06/29 10:06:15;;;;;;;7.45;3.78;;;;;;;;;;5087497;28;20430;-76
2021/06/29 10:09:10;;;;;;;6.87;3.63;;;;;;;;;;5083220;28;20024;-75
2021/06/29 10:12:00;;;;;;;9.48;4.25;;;;;;;;;;5083329;28;20276;-76
2021/06/29 10:14:26;;;;;;;5.80;4.10;;;;;;;;;;5076393;28;20119;-76
2021/06/29 10:16:57;;;;;;;6.15;3.85;;;;;;;;;;5094259;28;20052;-77
2021/06/29 10:22:06;;;;;;;5.93;3.60;;;;;;;;;;5097331;28;20028;-76
2021/06/29 10:24:34;;;;;;;5.57;3.22;;;;;;;;;;5083280;28;20537;-76
2021/06/29 10:27:03;;;;;;;7.13;3.72;;;;;;;;;;5078064;28;20036;-76
2021/06/29 10:29:30;;;;;;;4.95;3.10;;;;;;;;;;5065281;28;20033;-77
2021/06/29 10:31:58;;;;;;;5.65;3.00;;;;;;;;;;5081135;28;20537;-77
2021/06/29 10:34:46;;;;;;;4.47;2.70;;;;;;;;;;5095000;28;20031;-77
2021/06/29 10:37:11;;;;;;;5.50;2.75;;;;;;;;;;5095449;28;20028;-78
2021/06/29 10:39:37;;;;;;;3.83;2.50;;;;;;;;;;5077317;28;20391;-77
2021/06/29 10:42:09;;;;;;;6.18;2.42;;;;;;;;;;5095318;28;20103;-77
2021/06/29 10:44:40;;;;;;;4.63;2.83;;;;;;;;;;5087488;28;20085;-78
2021/06/29 10:47:36;;;;;;;6.97;3.10;;;;;;;;;;5075427;28;20029;-77
2021/06/29 10:50:04;;;;;;;4.70;2.47;;;;;;;;;;5070825;28;20047;-78
2021/06/29 10:52:34;;;;;;;5.20;2.90;;;;;;;;;;5094502;28;20141;-77
2021/06/29 10:55:19;;;;;;;5.43;2.70;;;;;;;;;;5081150;28;20031;-77
2021/06/29 10:57:49;;;;;;;4.57;2.30;;;;;;;;;;5095004;28;20547;-78
2021/06/29 11:00:18;;;;;;;4.47;2.35;;;;;;;;;;5094582;28;20023;-76
2021/06/29 11:03:08;;;;;;;3.45;2.25;;;;;;;;;;5094883;28;20078;-78
2021/06/29 11:05:43;;;;;;;3.97;2.30;;;;;;;;;;5085400;28;20039;-77
2021/06/29 11:08:23;;;;;;;3.40;2.33;;;;;;;;;;5095200;28;20055;-78
2021/06/29 11:10:49;;;;;;;5.13;2.50;;;;;;;;;;5094361;28;20405;-77
2021/06/29 11:13:19;;;;;;;5.05;2.67;;;;;;;;;;5094167;28;20023;-77
2021/06/29 11:15:53;;;;;;;5.22;2.78;;;;;;;;;;5095384;28;20162;-77
2021/06/29 11:18:44;;;;;;;5.60;2.58;;;;;;;;;;5094212;28;20110;-77
2021/06/29 11:21:21;;;;;;;3.33;1.90;;;;;;;;;;5084450;28;20047;-77
2021/06/29 11:23:47;;;;;;;2.95;1.95;;;;;;;;;;5095672;28;20024;-77
2021/06/29 11:26:13;;;;;;;4.07;2.40;;;;;;;;;;5095933;28;20035;-77
2021/06/29 11:28:43;;;;;;;4.57;2.83;;;;;;;;;;5061295;28;20033;-78
2021/06/29 11:31:20;;;;;;;5.40;2.88;;;;;;;;;;5054768;28;20499;-77
2021/06/29 11:33:53;;;;;;;5.18;2.58;;;;;;;;;;5054843;28;20021;-77
2021/06/29 11:36:30;;;;;;;3.70;2.50;;;;;;;;;;5054256;28;20024;-77
2021/06/29 11:39:00;;;;;;;3.97;2.58;;;;;;;;;;5068336;28;20020;-78
2021/06/29 11:41:31;;;;;;;4.65;2.45;;;;;;;;;;5057120;28;20435;-76
2021/06/29 11:44:17;;;;;;;11.13;2.85;;;;;;;;;;5068186;28;20045;-77
2021/06/29 11:46:59;;;;;;;5.00;2.85;;;;;;;;;;5057910;28;20055;-77
2021/06/29 11:49:29;;;;;;;5.00;2.80;;;;;;;;;;5063581;28;20095;-76
2021/06/29 11:51:59;;;;;;;4.22;2.63;;;;;;;;;;5061322;28;20067;-77
2021/06/29 11:54:44;;;;;;;4.15;2.50;;;;;;;;;;5053323;28;20337;-78
2021/06/29 11:57:16;;;;;;;4.82;2.78;;;;;;;;;;5075700;28;20089;-74
2021/06/29 11:59:42;;;;;;;5.43;2.47;;;;;;;;;;5072506;28;20354;-76
2021/06/29 12:02:12;;;;;;;2.72;2.10;;;;;;;;;;5093323;28;20076;-76
2021/06/29 12:04:52;;;;;;;4.75;1.80;;;;;;;;;;5094542;28;20455;-77
2021/06/29 12:07:48;;;;;;;3.08;1.95;;;;;;;;;;5069664;28;20820;-77
2021/06/29 12:10:19;;;;;;;4.65;2.80;;;;;;;;;;5094409;28;20056;-78
2021/06/29 12:12:47;;;;;;;5.03;2.75;;;;;;;;;;5094990;28;20047;-78
2021/06/29 12:15:17;;;;;;;5.03;3.45;;;;;;;;;;5065635;28;20459;-77
2021/06/29 12:17:55;;;;;;;4.70;3.20;;;;;;;;;;5074399;28;20028;-79
2021/06/29 12:20:23;;;;;;;6.80;3.40;;;;;;;;;;5093836;28;20046;-80
2021/06/29 12:22:50;;;;;;;5.70;3.47;;;;;;;;;;5048331;28;20032;-79
2021/06/29 12:25:43;;;;;;;8.68;3.65;;;;;;;;;;5070381;28;20376;-76
2021/06/29 12:28:22;;;;;;;4.88;3.53;;;;;;;;;;5075565;28;20032;-76
2021/06/29 12:30:56;;;;;;;5.25;3.20;;;;;;;;;;5083047;28;20032;-76
2021/06/29 12:33:23;;;;;;;8.32;3.40;;;;;;;;;;5074328;28;20037;-76
2021/06/29 12:35:59;;;;;;;4.18;2.72;;;;;;;;;;5075613;28;20407;-77
2021/06/29 12:38:26;;;;;;;5.45;2.67;;;;;;;;;;5074551;28;20096;-78
2021/06/29 12:40:57;;;;;;;3.65;2.30;;;;;;;;;;5071811;28;20032;-77
2021/06/29 12:43:42;;;;;;;2.45;2.00;;;;;;;;;;5055303;28;20029;-78
2021/06/29 12:46:26;;;;;;;4.05;2.22;;;;;;;;;;5073339;28;20028;-77
2021/06/29 12:49:20;;;;;;;4.00;2.17;;;;;;;;;;5067941;28;20025;-76
2021/06/29 12:51:48;;;;;;;3.80;2.28;;;;;;;;;;5069533;28;20037;-76
2021/06/29 12:54:21;;;;;;;2.40;1.60;;;;;;;;;;5068492;28;20025;-77
2021/06/29 12:57:04;;;;;;;2.25;1.92;;;;;;;;;;5044604;28;20060;-78
2021/06/29 12:59:33;;;;;;;5.13;2.45;;;;;;;;;;5074873;28;20035;-79
2021/06/29 13:02:27;;;;;;;4.03;2.15;;;;;;;;;;5073301;28;20039;-78
2021/06/29 13:05:12;;;;;;;3.50;1.80;;;;;;;;;;5073852;28;20032;-79
2021/06/29 13:07:38;;;;;;;3.80;2.08;;;;;;;;;;5075228;28;20373;-79
2021/06/29 13:10:14;;;;;;;4.28;2.53;;;;;;;;;;5075005;28;20036;-78
2021/06/29 13:12:41;;;;;;;5.20;2.75;;;;;;;;;;5074844;28;20024;-78
2021/06/29 13:15:11;;;;;;;3.80;2.55;;;;;;;;;;5074321;28;20029;-79
2021/06/29 13:17:50;;;;;;;5.53;2.65;;;;;;;;;;5073908;28;20021;-77
2021/06/29 13:20:21;;;;;;;3.63;2.40;;;;;;;;;;5078364;28;20158;-77
2021/06/29 13:22:50;;;;;;;6.87;2.23;;;;;;;;;;5067128;28;20055;-77
2021/06/29 13:25:36;;;;;;;4.45;1.95;;;;;;;;;;5070408;28;20039;-77
2021/06/29 13:28:10;;;;;;;3.72;1.92;;;;;;;;;;5074424;28;20135;-78
2021/06/29 13:30:38;;;;;;;3.60;1.70;;;;;;;;;;5081733;28;20024;-75
2021/06/29 13:33:39;;;;;;;4.07;1.80;;;;;;;;;;5094432;28;20150;-77
2021/06/29 13:36:06;;;;;;;2.53;1.67;;;;;;;;;;5082460;28;20472;-77
2021/06/29 13:38:32;;;;;;;3.30;1.80;;;;;;;;;;5080553;28;20033;-75
2021/06/29 13:40:58;;;;;;;2.72;1.60;;;;;;;;;;5088325;28;20113;-76
2021/06/29 13:43:31;;;;;;;2.58;1.60;;;;;;;;;;5104245;28;20074;-76
2021/06/29 13:48:49;;;;;;;3.53;1.73;;;;;;;;;;5082100;28;20115;-76
2021/06/29 13:51:28;;;;;;;3.00;1.70;;;;;;;;;;5096381;28;20110;-77
2021/06/29 13:53:54;;;;;;;4.15;1.60;;;;;;;;;;5093267;28;20472;-77
2021/06/29 13:56:37;;;;;;;2.60;1.60;;;;;;;;;;5095976;28;20052;-77
2021/06/29 13:59:03;;;;;;;2.92;1.58;;;;;;;;;;5093629;28;20488;-76
2021/06/29 14:01:31;;;;;;;3.97;1.42;;;;;;;;;;5084528;28;20027;-76
2021/06/29 14:04:06;;;;;;;2.72;1.60;;;;;;;;;;5079910;28;20016;-76
2021/06/29 14:06:32;;;;;;;2.67;1.70;;;;;;;;;;5094549;28;20120;-76
2021/06/29 14:09:08;;;;;;;2.78;1.50;;;;;;;;;;5090604;28;20428;-78
2021/06/29 14:11:39;;;;;;;3.35;1.60;;;;;;;;;;5081615;28;20029;-78
2021/06/29 14:14:05;;;;;;;3.00;1.58;;;;;;;;;;5082795;28;20050;-78
2021/06/29 14:16:31;;;;;;;2.78;1.65;;;;;;;;;;5094933;28;20016;-77
2021/06/29 14:18:57;;;;;;;2.38;1.52;;;;;;;;;;5084893;28;20032;-74
2021/06/29 14:21:28;;;;;;;1.90;1.27;;;;;;;;;;5075864;28;20024;-75
2021/06/29 14:23:57;;;;;;;1.98;1.48;;;;;;;;;;5085886;28;20020;-74
2021/06/29 14:26:24;;;;;;;2.28;1.63;;;;;;;;;;5083225;28;20109;-74
2021/06/29 14:28:50;;;;;;;2.22;1.48;;;;;;;;;;5079112;28;20028;-74
2021/06/29 14:31:17;;;;;;;3.75;1.60;;;;;;;;;;5085196;28;20351;-75
2021/06/29 14:33:43;;;;;;;2.95;1.63;;;;;;;;;;5099426;28;20115;-73
2021/06/29 14:36:19;;;;;;;1.88;1.55;;;;;;;;;;5080038;28;20155;-73
2021/06/29 14:38:47;;;;;;;4.43;1.70;;;;;;;;;;5076412;28;20039;-74
2021/06/29 14:41:13;;;;;;;2.88;1.70;;;;;;;;;;5074907;28;20032;-73
2021/06/29 14:43:39;;;;;;;2.45;1.30;;;;;;;;;;5075795;28;20051;-73
2021/06/29 14:46:06;;;;;;;4.70;1.80;;;;;;;;;;5075649;28;20487;-73
2021/06/29 14:48:31;;;;;;;4.40;2.00;;;;;;;;;;5085975;28;20032;-73
2021/06/29 14:50:57;;;;;;;2.88;2.00;;;;;;;;;;5095186;28;20046;-72
2021/06/29 14:53:22;;;;;;;2.38;1.90;;;;;;;;;;5072462;28;20044;-73
2021/06/29 14:55:48;;;;;;;3.45;1.95;;;;;;;;;;5076574;28;20074;-72
2021/06/29 14:58:14;;;;;;;3.70;2.08;;;;;;;;;;5074594;28;20016;-73